Time;durP1;ratioP1;P1;durP2;ratioP2;P2;SDS_P1;SDS_P2;PMS_P1;PMS_P2;Temp;Humidity;BMP_temperature;BMP_pressure;BME280_temperature;BME280_humidity;BME280_pressure;Samples;Min_cycle;Max_cycle;Signal;HPM_P1;HPM_P2
2024/01/14 00:00:51;;;;;;;23.37;8.23;;;-1.80;99.90;;;;;;5098569;28;20026;-74
2024/01/14 00:03:16;;;;;;;27.67;8.63;;;-1.80;99.90;;;;;;5098895;28;20092;-75
2024/01/14 00:05:42;;;;;;;23.70;8.77;;;-1.80;99.90;;;;;;5116534;28;20487;-81
2024/01/14 00:08:08;;;;;;;28.53;9.57;;;-1.90;99.90;;;;;;5116703;28;20050;-75
2024/01/14 00:10:33;;;;;;;28.80;9.43;;;-1.80;99.90;;;;;;5116804;28;20032;-75
2024/01/14 00:12:59;;;;;;;30.57;9.57;;;-1.80;99.90;;;;;;5098253;28;20371;-75
2024/01/14 00:15:24;;;;;;;29.70;9.07;;;-1.80;99.90;;;;;;5098672;28;20030;-75
2024/01/14 00:17:50;;;;;;;28.43;9.43;;;-1.80;99.90;;;;;;5098111;28;20027;-75
2024/01/14 00:20:16;;;;;;;27.33;8.37;;;-1.90;99.90;;;;;;5098586;28;20356;-74
2024/01/14 00:22:42;;;;;;;31.83;9.90;;;-1.90;99.90;;;;;;5098116;28;20026;-75
2024/01/14 00:25:08;;;;;;;25.73;8.27;;;-1.90;99.90;;;;;;5097962;28;20020;-74
2024/01/14 00:27:33;;;;;;;27.27;8.33;;;-1.80;99.90;;;;;;5098492;28;20031;-75
2024/01/14 00:30:00;;;;;;;24.40;8.27;;;-1.80;99.90;;;;;;5116163;28;20016;-75
2024/01/14 00:32:25;;;;;;;26.93;8.47;;;-1.80;99.90;;;;;;5098396;28;20355;-75
2024/01/14 00:34:51;;;;;;;27.23;8.90;;;-1.80;99.90;;;;;;5097847;28;20019;-75
2024/01/14 00:37:16;;;;;;;23.47;8.80;;;-1.80;99.90;;;;;;5098180;28;20028;-75
2024/01/14 00:39:42;;;;;;;27.40;8.87;;;-1.80;99.90;;;;;;5098199;28;20030;-75
2024/01/14 00:42:08;;;;;;;26.17;9.10;;;-1.80;99.90;;;;;;5097436;28;20044;-75
2024/01/14 00:44:34;;;;;;;29.63;9.17;;;-1.90;99.90;;;;;;5098187;28;20028;-74
2024/01/14 00:47:00;;;;;;;31.63;9.97;;;-1.80;99.90;;;;;;5097546;28;20023;-75
2024/01/14 00:49:25;;;;;;;28.40;9.37;;;-1.90;99.90;;;;;;5098196;28;20065;-75
2024/01/14 00:51:51;;;;;;;33.73;10.07;;;-1.80;99.90;;;;;;5097450;28;20444;-75
2024/01/14 00:54:16;;;;;;;29.77;10.20;;;-1.80;99.90;;;;;;5097964;28;20068;-74
2024/01/14 00:56:43;;;;;;;29.03;8.43;;;-1.80;99.90;;;;;;5097858;28;20027;-75
2024/01/14 00:59:09;;;;;;;28.37;9.40;;;-1.80;99.90;;;;;;5115611;28;20051;-75
2024/01/14 01:01:34;;;;;;;30.53;9.00;;;-1.80;99.90;;;;;;5097779;28;20051;-75
2024/01/14 01:04:00;;;;;;;36.80;11.07;;;-1.80;99.90;;;;;;5097374;28;20111;-75
2024/01/14 01:06:25;;;;;;;36.77;10.27;;;-1.80;99.90;;;;;;5097507;28;20027;-74
2024/01/14 01:08:51;;;;;;;31.17;10.80;;;-1.80;99.90;;;;;;5096865;28;20055;-75
2024/01/14 01:11:17;;;;;;;36.87;10.33;;;-1.90;99.90;;;;;;5097648;28;20023;-75
2024/01/14 01:13:42;;;;;;;40.30;12.83;;;-2.00;99.90;;;;;;5097504;28;20429;-75
2024/01/14 01:16:08;;;;;;;32.40;11.00;;;-1.90;99.90;;;;;;5096898;28;20026;-75
2024/01/14 01:18:34;;;;;;;30.30;9.97;;;-1.90;99.90;;;;;;5097551;28;20020;-74
2024/01/14 01:21:00;;;;;;;37.37;10.27;;;-1.90;99.90;;;;;;5096977;28;20023;-75
2024/01/14 01:23:25;;;;;;;31.37;10.13;;;-1.90;99.90;;;;;;5097322;28;20030;-75
2024/01/14 01:25:51;;;;;;;37.63;11.70;;;-1.90;99.90;;;;;;5115092;28;20444;-75
2024/01/14 01:28:17;;;;;;;33.27;11.23;;;-1.90;99.90;;;;;;5097285;28;20020;-75
2024/01/14 01:30:42;;;;;;;38.83;11.77;;;-1.90;99.90;;;;;;5115556;28;20094;-75
2024/01/14 01:33:08;;;;;;;36.43;11.07;;;-2.00;99.90;;;;;;5096711;28;20020;-74
2024/01/14 01:35:34;;;;;;;36.63;11.43;;;-2.00;99.90;;;;;;5115355;28;20053;-74
2024/01/14 01:37:59;;;;;;;33.87;11.57;;;-2.00;99.90;;;;;;5114832;28;20016;-75
2024/01/14 01:40:25;;;;;;;40.13;11.77;;;-2.00;99.90;;;;;;5096760;28;20050;-75
2024/01/14 01:42:51;;;;;;;47.70;12.90;;;-2.00;99.90;;;;;;5096670;28;20023;-75
2024/01/14 01:45:16;;;;;;;40.00;12.07;;;-1.90;99.90;;;;;;5096792;28;20032;-75
2024/01/14 01:47:42;;;;;;;37.73;11.70;;;-1.90;99.90;;;;;;5096970;28;20364;-75
2024/01/14 01:50:09;;;;;;;42.97;12.87;;;-1.80;99.90;;;;;;5114921;28;20039;-74
2024/01/14 01:52:35;;;;;;;38.50;12.00;;;-1.90;99.90;;;;;;5096691;28;20023;-74
2024/01/14 01:55:04;;;;;;;46.90;13.43;;;-1.90;99.90;;;;;;5096202;28;20023;-75
2024/01/14 01:57:30;;;;;;;44.43;13.23;;;-1.80;99.90;;;;;;5096828;28;20368;-75
2024/01/14 01:59:56;;;;;;;49.17;13.23;;;-1.90;99.90;;;;;;5114148;28;20054;-75
2024/01/14 02:02:22;;;;;;;39.73;13.10;;;-1.80;99.90;;;;;;5115369;28;20479;-74
2024/01/14 02:04:48;;;;;;;40.97;13.13;;;-1.80;99.90;;;;;;5114788;28;20016;-74
2024/01/14 02:07:15;;;;;;;41.00;11.73;;;-1.80;99.90;;;;;;5095582;28;20027;-74
2024/01/14 02:09:40;;;;;;;49.30;13.23;;;-1.80;99.90;;;;;;5096580;28;20096;-74
2024/01/14 02:12:06;;;;;;;47.57;14.07;;;-1.80;99.90;;;;;;5096027;28;20031;-74
2024/01/14 02:14:33;;;;;;;44.07;14.17;;;-1.80;99.90;;;;;;5096469;28;20023;-75
2024/01/14 02:16:58;;;;;;;40.53;12.70;;;-1.80;99.90;;;;;;5095886;28;20478;-75
2024/01/14 02:19:24;;;;;;;40.30;12.50;;;-1.90;99.90;;;;;;5114341;28;20023;-74
2024/01/14 02:21:58;;;;;;;43.43;12.87;;;-1.90;99.90;;;;;;5095705;28;20467;-81
2024/01/14 02:24:27;;;;;;;42.63;12.87;;;-1.90;99.90;;;;;;5114415;28;20023;-74
2024/01/14 02:26:53;;;;;;;38.20;12.67;;;-1.90;99.90;;;;;;5095531;28;20032;-75
2024/01/14 02:29:20;;;;;;;37.37;11.77;;;-1.90;99.90;;;;;;5096148;28;20470;-75
2024/01/14 02:31:45;;;;;;;35.87;12.60;;;-2.00;99.90;;;;;;5113987;28;20027;-74
2024/01/14 02:34:12;;;;;;;44.23;12.53;;;-1.90;99.90;;;;;;5095508;28;20023;-74
2024/01/14 02:36:37;;;;;;;43.70;11.43;;;-1.90;99.90;;;;;;5095950;28;20475;-74
2024/01/14 02:39:04;;;;;;;40.60;11.83;;;-1.90;99.90;;;;;;5095349;28;20016;-75
2024/01/14 02:41:31;;;;;;;40.83;11.97;;;-1.90;99.90;;;;;;5095461;28;20097;-75
2024/01/14 02:43:56;;;;;;;42.07;12.67;;;-1.90;99.90;;;;;;5095429;28;20122;-75
2024/01/14 02:46:22;;;;;;;40.13;12.30;;;-1.90;99.90;;;;;;5095996;28;20118;-75
2024/01/14 02:48:47;;;;;;;39.20;12.57;;;-2.00;99.90;;;;;;5113668;28;20019;-75
2024/01/14 02:51:13;;;;;;;42.13;12.07;;;-2.00;99.90;;;;;;5095191;28;20504;-75
2024/01/14 02:53:39;;;;;;;36.60;11.40;;;-1.90;99.90;;;;;;5095668;28;20023;-75
2024/01/14 02:56:05;;;;;;;36.83;11.87;;;-2.00;99.90;;;;;;5113380;28;20019;-75
2024/01/14 02:58:31;;;;;;;36.93;12.07;;;-2.00;99.90;;;;;;5113745;28;20077;-75
2024/01/14 03:00:56;;;;;;;37.13;11.60;;;-2.00;99.90;;;;;;5095025;28;20028;-75
2024/01/14 03:03:22;;;;;;;38.37;11.70;;;-2.00;99.90;;;;;;5095514;28;20072;-74
2024/01/14 03:05:47;;;;;;;42.37;12.00;;;-2.10;99.90;;;;;;5095348;28;20115;-75
2024/01/14 03:08:13;;;;;;;40.20;11.03;;;-2.10;99.90;;;;;;5113479;28;20118;-75
2024/01/14 03:10:39;;;;;;;45.47;12.73;;;-2.00;99.90;;;;;;5095396;28;20034;-74
2024/01/14 03:13:04;;;;;;;37.50;11.53;;;-2.10;99.90;;;;;;5113085;28;20024;-74
2024/01/14 03:15:30;;;;;;;34.53;10.57;;;-2.10;99.90;;;;;;5113419;28;20031;-74
2024/01/14 03:17:56;;;;;;;39.70;11.73;;;-2.10;99.90;;;;;;5112964;28;20027;-75
2024/01/14 03:20:22;;;;;;;39.53;11.87;;;-2.10;99.90;;;;;;5113491;28;20023;-74
2024/01/14 03:22:48;;;;;;;35.93;11.77;;;-2.10;99.90;;;;;;5095189;28;20076;-75
2024/01/14 03:25:14;;;;;;;40.50;11.83;;;-2.10;99.90;;;;;;5094632;28;20411;-75
2024/01/14 03:27:39;;;;;;;32.47;10.87;;;-2.20;99.90;;;;;;5112991;28;20525;-75
2024/01/14 03:30:05;;;;;;;40.67;11.13;;;-2.10;99.90;;;;;;5094620;28;20020;-75
2024/01/14 03:32:31;;;;;;;39.77;12.53;;;-2.10;99.90;;;;;;5095272;28;20046;-75
2024/01/14 03:34:57;;;;;;;37.27;11.13;;;-2.10;99.90;;;;;;5094617;28;20055;-75
2024/01/14 03:37:23;;;;;;;35.10;10.60;;;-2.10;99.90;;;;;;5095100;28;20028;-75
2024/01/14 03:39:49;;;;;;;43.97;11.90;;;-2.10;99.90;;;;;;5113295;28;20024;-75
2024/01/14 03:42:15;;;;;;;34.30;10.90;;;-2.10;99.90;;;;;;5094254;28;20043;-75
2024/01/14 03:44:41;;;;;;;44.73;12.97;;;-2.00;99.90;;;;;;5095037;28;20115;-75
2024/01/14 03:47:07;;;;;;;42.50;13.00;;;-2.00;99.90;;;;;;5094356;28;20056;-75
2024/01/14 03:49:33;;;;;;;39.63;12.77;;;-2.00;99.90;;;;;;5112877;28;20445;-75
2024/01/14 03:51:59;;;;;;;41.07;10.90;;;-2.10;99.90;;;;;;5112719;28;20453;-75
2024/01/14 03:54:24;;;;;;;38.23;11.70;;;-2.00;99.90;;;;;;5094798;28;20341;-75
2024/01/14 03:56:50;;;;;;;36.90;11.40;;;-2.00;99.90;;;;;;5112922;28;20524;-75
2024/01/14 03:59:15;;;;;;;35.73;10.67;;;-2.00;99.90;;;;;;5094493;28;20066;-75
2024/01/14 04:01:43;;;;;;;39.67;12.43;;;-2.00;99.90;;;;;;5094819;28;20020;-75
2024/01/14 04:04:09;;;;;;;38.00;11.27;;;-2.00;99.90;;;;;;5112590;28;20125;-75
2024/01/14 04:06:35;;;;;;;39.03;11.53;;;-2.00;99.90;;;;;;5094893;28;20137;-74
2024/01/14 04:09:01;;;;;;;36.83;11.87;;;-2.00;99.90;;;;;;5094220;28;20451;-75
2024/01/14 04:11:27;;;;;;;36.97;10.80;;;-2.00;99.90;;;;;;5112663;28;20023;-75
2024/01/14 04:13:53;;;;;;;32.13;10.37;;;-2.00;99.90;;;;;;5113192;28;20036;-74
2024/01/14 04:16:18;;;;;;;36.97;11.47;;;-1.90;99.90;;;;;;5094180;28;20035;-74
2024/01/14 04:18:44;;;;;;;39.93;11.80;;;-1.90;99.90;;;;;;5094696;28;20030;-75
2024/01/14 04:21:20;;;;;;;33.93;10.80;;;-1.90;99.90;;;;;;5094221;28;20106;-75
2024/01/14 04:23:46;;;;;;;32.83;9.70;;;-1.90;99.90;;;;;;5094896;28;20024;-74
2024/01/14 04:26:11;;;;;;;30.30;10.67;;;-2.00;99.90;;;;;;5112054;28;20043;-75
2024/01/14 04:28:37;;;;;;;28.93;10.27;;;-2.00;99.90;;;;;;5112847;28;20027;-74
2024/01/14 04:31:03;;;;;;;31.13;9.90;;;-2.00;99.90;;;;;;5094231;28;20039;-75
2024/01/14 04:33:28;;;;;;;34.90;10.47;;;-2.00;99.90;;;;;;5094649;28;20364;-75
2024/01/14 04:35:54;;;;;;;42.40;11.77;;;-2.10;99.90;;;;;;5094566;28;20027;-74
2024/01/14 04:38:19;;;;;;;40.00;12.13;;;-2.10;99.90;;;;;;5094062;28;20020;-75
2024/01/14 04:40:45;;;;;;;36.93;11.43;;;-2.20;99.90;;;;;;5093992;28;20379;-75
2024/01/14 04:43:11;;;;;;;35.83;10.60;;;-2.10;99.90;;;;;;5094477;28;20034;-74
2024/01/14 04:45:37;;;;;;;35.97;10.70;;;-2.10;99.90;;;;;;5098040;28;20035;-74
2024/01/14 04:48:04;;;;;;;35.10;10.67;;;-2.10;99.90;;;;;;5097482;28;20019;-75
2024/01/14 04:50:30;;;;;;;39.17;11.70;;;-2.10;99.90;;;;;;5098241;28;20372;-74
2024/01/14 04:52:55;;;;;;;35.27;11.50;;;-2.10;99.90;;;;;;5098036;28;20030;-75
2024/01/14 04:55:21;;;;;;;33.10;11.13;;;-2.10;99.90;;;;;;5115672;28;20028;-75
2024/01/14 04:57:47;;;;;;;38.10;11.63;;;-2.20;99.90;;;;;;5098203;28;20019;-75
2024/01/14 05:00:13;;;;;;;37.63;11.60;;;-2.20;99.90;;;;;;5097376;28;20023;-75
2024/01/14 05:02:38;;;;;;;33.83;10.23;;;-2.20;99.90;;;;;;5097796;28;20015;-75
2024/01/14 05:05:04;;;;;;;33.37;10.63;;;-2.10;99.90;;;;;;5097259;28;20034;-75
2024/01/14 05:07:30;;;;;;;36.97;10.50;;;-2.10;99.90;;;;;;5097875;28;20019;-74
2024/01/14 05:09:56;;;;;;;33.87;10.43;;;-2.10;99.90;;;;;;5115468;28;20027;-75
2024/01/14 05:12:22;;;;;;;39.63;10.90;;;-2.10;99.90;;;;;;5097025;28;20457;-74
2024/01/14 05:14:47;;;;;;;32.50;10.67;;;-2.10;99.90;;;;;;5097766;28;20020;-74
2024/01/14 05:17:14;;;;;;;38.13;11.83;;;-2.10;99.90;;;;;;5097056;28;20430;-75
2024/01/14 05:19:42;;;;;;;34.30;10.90;;;-2.10;99.90;;;;;;5115966;28;20498;-75
2024/01/14 05:22:08;;;;;;;31.13;10.90;;;-2.00;99.90;;;;;;5096823;28;20023;-75
2024/01/14 05:24:33;;;;;;;37.40;10.63;;;-2.00;99.90;;;;;;5097577;28;20047;-74
2024/01/14 05:26:59;;;;;;;37.03;10.87;;;-2.00;99.90;;;;;;5097150;28;20023;-74
2024/01/14 05:29:24;;;;;;;36.40;11.70;;;-2.00;99.90;;;;;;5114724;28;20088;-75
2024/01/14 05:31:50;;;;;;;37.70;11.70;;;-2.00;99.90;;;;;;5097461;28;20027;-75
2024/01/14 05:34:15;;;;;;;37.40;10.50;;;-2.00;99.90;;;;;;5096739;28;20440;-75
2024/01/14 05:36:41;;;;;;;31.90;9.90;;;-1.90;99.90;;;;;;5097180;28;20019;-75
2024/01/14 05:39:07;;;;;;;34.57;10.47;;;-2.00;99.90;;;;;;5096661;28;20111;-75
2024/01/14 05:41:32;;;;;;;38.33;10.80;;;-2.00;99.90;;;;;;5096855;28;20061;-75
2024/01/14 05:43:58;;;;;;;40.67;11.83;;;-2.00;99.90;;;;;;5097009;28;20369;-75
2024/01/14 05:46:23;;;;;;;34.53;11.47;;;-2.00;99.90;;;;;;5096414;28;20035;-74
2024/01/14 05:48:49;;;;;;;40.03;11.97;;;-2.00;99.90;;;;;;5096918;28;20027;-74
2024/01/14 05:51:15;;;;;;;40.57;11.13;;;-2.00;99.90;;;;;;5114614;28;20428;-74
2024/01/14 05:53:40;;;;;;;43.67;12.53;;;-2.00;99.90;;;;;;5115050;28;20024;-74
2024/01/14 05:56:06;;;;;;;36.80;11.73;;;-2.00;99.90;;;;;;5095258;28;20107;-75
2024/01/14 05:58:32;;;;;;;35.87;10.17;;;-2.00;99.90;;;;;;5096759;28;20441;-74
2024/01/14 06:00:58;;;;;;;41.90;12.17;;;-2.00;99.90;;;;;;5096603;28;20048;-75
2024/01/14 06:03:24;;;;;;;43.10;12.77;;;-2.00;99.90;;;;;;5096170;28;20035;-75
2024/01/14 06:05:49;;;;;;;45.63;13.30;;;-2.10;99.90;;;;;;5114737;28;20039;-75
2024/01/14 06:08:15;;;;;;;45.67;12.77;;;-2.10;99.90;;;;;;5114310;28;20107;-75
2024/01/14 06:10:41;;;;;;;48.67;14.63;;;-2.10;99.90;;;;;;5096310;28;20436;-74
2024/01/14 06:13:06;;;;;;;47.30;13.17;;;-2.10;99.90;;;;;;5096108;28;20372;-75
2024/01/14 06:15:32;;;;;;;51.50;14.87;;;-2.20;99.90;;;;;;5096605;28;20027;-74
2024/01/14 06:17:58;;;;;;;50.07;15.50;;;-2.20;99.90;;;;;;5096340;28;20511;-75
2024/01/14 06:20:23;;;;;;;41.23;13.43;;;-2.20;99.90;;;;;;5114042;28;20543;-75
2024/01/14 06:22:49;;;;;;;48.27;14.93;;;-2.20;99.90;;;;;;5114681;28;20094;-75
2024/01/14 06:25:15;;;;;;;54.87;14.77;;;-2.20;99.90;;;;;;5095605;28;20349;-75
2024/01/14 06:27:40;;;;;;;48.03;14.07;;;-2.20;99.90;;;;;;5096190;28;20027;-75
2024/01/14 06:30:07;;;;;;;46.70;14.03;;;-2.20;99.90;;;;;;5095731;28;20026;-76
2024/01/14 06:32:32;;;;;;;52.07;14.07;;;-2.20;99.90;;;;;;5095935;28;20072;-75
2024/01/14 06:34:58;;;;;;;47.80;14.27;;;-2.20;99.90;;;;;;5096150;28;20024;-74
2024/01/14 06:37:24;;;;;;;46.23;13.97;;;-2.20;99.90;;;;;;5095541;28;20038;-75
2024/01/14 06:39:49;;;;;;;55.67;15.13;;;-2.20;99.90;;;;;;5095928;28;20020;-75
2024/01/14 06:42:15;;;;;;;45.87;14.50;;;-2.20;99.90;;;;;;5113893;28;20494;-75
2024/01/14 06:44:41;;;;;;;55.43;15.37;;;-2.30;99.90;;;;;;5095908;28;20065;-74
2024/01/14 06:47:07;;;;;;;49.77;14.37;;;-2.30;99.90;;;;;;5095259;28;20411;-75
2024/01/14 06:49:32;;;;;;;56.13;15.53;;;-2.30;99.90;;;;;;5095654;28;20397;-75
2024/01/14 06:51:58;;;;;;;52.20;14.43;;;-2.30;99.90;;;;;;5095640;28;20065;-75
2024/01/14 06:54:23;;;;;;;60.47;16.00;;;-2.30;99.90;;;;;;5095170;28;20494;-75
2024/01/14 06:56:49;;;;;;;51.37;15.50;;;-2.40;99.90;;;;;;5113851;28;20118;-74
2024/01/14 06:59:18;;;;;;;52.07;14.90;;;-2.40;99.90;;;;;;5113361;28;20418;-75
2024/01/14 07:01:45;;;;;;;60.53;17.07;;;-2.40;99.90;;;;;;5113980;28;20027;-75
2024/01/14 07:04:12;;;;;;;53.10;15.33;;;-2.30;99.90;;;;;;5095020;28;20020;-74
2024/01/14 07:06:37;;;;;;;51.00;13.77;;;-2.40;99.90;;;;;;5113404;28;20031;-75
2024/01/14 07:09:04;;;;;;;54.93;14.13;;;-2.30;99.90;;;;;;5095315;28;20364;-74
2024/01/14 07:11:30;;;;;;;55.33;14.70;;;-2.30;99.90;;;;;;5094679;28;20024;-74
2024/01/14 07:13:55;;;;;;;52.87;15.70;;;-2.40;99.90;;;;;;5095231;28;20477;-74
2024/01/14 07:16:21;;;;;;;50.77;14.20;;;-2.40;99.90;;;;;;5094840;28;20372;-75
2024/01/14 07:18:46;;;;;;;44.30;13.40;;;-2.40;99.90;;;;;;5095292;28;20027;-74
2024/01/14 07:21:12;;;;;;;56.03;14.90;;;-2.40;99.90;;;;;;5094843;28;20448;-75
2024/01/14 07:23:38;;;;;;;50.00;14.20;;;-2.40;99.90;;;;;;5095278;28;20100;-75
2024/01/14 07:26:05;;;;;;;57.03;14.60;;;-2.40;99.90;;;;;;5095305;28;20092;-75
2024/01/14 07:28:31;;;;;;;50.17;14.20;;;-2.40;99.90;;;;;;5094640;28;20020;-74
2024/01/14 07:30:57;;;;;;;49.13;15.70;;;-2.40;99.90;;;;;;5113591;28;20364;-74
2024/01/14 07:33:22;;;;;;;55.07;14.83;;;-2.40;99.90;;;;;;5094729;28;20023;-75
2024/01/14 07:35:48;;;;;;;53.80;14.57;;;-2.40;99.90;;;;;;5094756;28;20419;-75
2024/01/14 07:38:13;;;;;;;54.90;15.13;;;-2.40;99.90;;;;;;5112880;28;20115;-75
2024/01/14 07:40:41;;;;;;;46.57;14.47;;;-2.40;99.90;;;;;;5094609;28;20043;-74
2024/01/14 07:43:07;;;;;;;56.90;14.50;;;-2.40;99.90;;;;;;5095135;28;20023;-74
2024/01/14 07:45:33;;;;;;;46.23;12.33;;;-2.40;99.90;;;;;;5094482;28;20085;-75
2024/01/14 07:47:59;;;;;;;48.53;12.93;;;-2.40;99.90;;;;;;5113204;28;20019;-75
2024/01/14 07:50:24;;;;;;;55.37;15.27;;;-2.40;99.90;;;;;;5112733;28;20024;-75
2024/01/14 07:52:50;;;;;;;48.13;14.60;;;-2.40;99.90;;;;;;5095129;28;20058;-75
2024/01/14 07:55:16;;;;;;;53.07;15.63;;;-2.40;99.90;;;;;;5094389;28;20016;-75
2024/01/14 07:57:41;;;;;;;45.97;12.27;;;-2.40;99.90;;;;;;5112802;28;20024;-75
2024/01/14 08:00:07;;;;;;;45.17;13.77;;;-2.40;99.90;;;;;;5113058;28;20064;-74
2024/01/14 08:02:33;;;;;;;52.47;14.83;;;-2.30;99.90;;;;;;5094365;28;20023;-75
2024/01/14 08:04:59;;;;;;;47.60;14.13;;;-2.30;99.90;;;;;;5094954;28;20016;-75
2024/01/14 08:07:24;;;;;;;53.87;15.40;;;-2.30;99.90;;;;;;5094175;28;20080;-75
2024/01/14 08:09:50;;;;;;;48.03;14.73;;;-2.30;99.90;;;;;;5094837;28;20028;-75
2024/01/14 08:12:15;;;;;;;63.13;15.60;;;-2.30;99.90;;;;;;5094171;28;20050;-75
2024/01/14 08:14:41;;;;;;;48.53;13.97;;;-2.20;99.90;;;;;;5094698;28;20036;-74
2024/01/14 08:17:06;;;;;;;54.27;14.47;;;-2.20;99.90;;;;;;5113124;28;20102;-75
2024/01/14 08:19:32;;;;;;;52.47;14.70;;;-2.20;99.90;;;;;;5096988;28;20023;-75
2024/01/14 08:21:58;;;;;;;42.93;12.47;;;-2.20;99.90;;;;;;5098560;28;20430;-75
2024/01/14 08:24:23;;;;;;;44.77;13.23;;;-2.20;99.90;;;;;;5098217;28;20080;-75
2024/01/14 08:26:49;;;;;;;50.13;14.93;;;-2.20;99.90;;;;;;5098430;28;20127;-75
2024/01/14 08:29:15;;;;;;;48.57;14.83;;;-2.20;99.90;;;;;;5097648;28;20023;-75
2024/01/14 08:31:41;;;;;;;48.63;12.30;;;-2.20;99.90;;;;;;5098401;28;20087;-74
2024/01/14 08:34:09;;;;;;;46.03;13.50;;;-2.10;99.90;;;;;;5098435;28;20020;-75
2024/01/14 08:36:36;;;;;;;47.37;14.20;;;-2.10;99.90;;;;;;5097817;28;20023;-75
2024/01/14 08:39:03;;;;;;;51.53;14.00;;;-2.10;99.90;;;;;;5116620;28;20019;-75
2024/01/14 08:41:29;;;;;;;46.00;13.07;;;-2.10;99.90;;;;;;5097225;28;20040;-75
2024/01/14 08:43:56;;;;;;;45.97;14.23;;;-2.00;99.90;;;;;;5116412;28;20034;-75
2024/01/14 08:46:22;;;;;;;50.80;14.77;;;-2.00;99.90;;;;;;5097678;28;20050;-75
2024/01/14 08:48:48;;;;;;;45.90;14.37;;;-2.00;99.90;;;;;;5116349;28;20027;-75
2024/01/14 08:51:14;;;;;;;49.30;14.27;;;-2.00;99.90;;;;;;5116149;28;20151;-79
2024/01/14 08:53:40;;;;;;;47.67;13.43;;;-2.00;99.90;;;;;;5098023;28;20455;-75
2024/01/14 08:56:06;;;;;;;48.67;13.37;;;-2.00;99.90;;;;;;5116129;28;20031;-76
2024/01/14 08:58:31;;;;;;;49.60;14.07;;;-1.90;99.90;;;;;;5097424;28;20436;-75
2024/01/14 09:00:57;;;;;;;48.00;12.90;;;-2.00;99.90;;;;;;5098079;28;20400;-74
2024/01/14 09:03:23;;;;;;;46.80;13.50;;;-1.90;99.90;;;;;;5097328;28;20093;-75
2024/01/14 09:05:48;;;;;;;44.63;13.30;;;-2.00;99.90;;;;;;5115884;28;20033;-75
2024/01/14 09:08:14;;;;;;;46.57;14.23;;;-2.00;99.90;;;;;;5115065;28;20388;-83
2024/01/14 09:10:40;;;;;;;49.23;14.23;;;-2.00;99.90;;;;;;5097490;28;20019;-75
2024/01/14 09:13:05;;;;;;;46.90;14.00;;;-2.10;99.90;;;;;;5115899;28;20050;-75
2024/01/14 09:15:31;;;;;;;44.73;13.93;;;-2.00;99.90;;;;;;5115119;28;20018;-75
2024/01/14 09:17:57;;;;;;;46.60;13.80;;;-2.00;99.90;;;;;;5097509;28;20068;-75
2024/01/14 09:20:22;;;;;;;46.77;13.33;;;-2.00;99.90;;;;;;5097050;28;20054;-75
2024/01/14 09:22:48;;;;;;;52.73;13.80;;;-2.00;99.90;;;;;;5097613;28;20482;-75
2024/01/14 09:25:14;;;;;;;42.60;13.93;;;-2.00;99.90;;;;;;5115683;28;20027;-74
2024/01/14 09:27:40;;;;;;;47.30;13.23;;;-2.00;99.90;;;;;;5115558;28;20016;-75
2024/01/14 09:30:07;;;;;;;41.37;12.47;;;-1.90;99.90;;;;;;5115084;28;20091;-75
2024/01/14 09:32:33;;;;;;;51.23;13.73;;;-1.90;99.90;;;;;;5115117;28;20085;-75
2024/01/14 09:34:59;;;;;;;48.63;13.83;;;-1.90;99.90;;;;;;5115477;28;20454;-74
2024/01/14 09:37:24;;;;;;;46.63;13.10;;;-1.90;99.90;;;;;;5096633;28;20379;-75
2024/01/14 09:39:50;;;;;;;47.00;13.87;;;-1.90;99.90;;;;;;5115277;28;20015;-75
2024/01/14 09:42:24;;;;;;;42.37;13.30;;;-1.90;99.90;;;;;;5115220;28;20371;-75
2024/01/14 09:44:58;;;;;;;45.57;13.60;;;-1.80;99.90;;;;;;5115075;28;20478;-75
2024/01/14 09:47:25;;;;;;;43.43;13.20;;;-1.80;99.90;;;;;;5096526;28;20436;-75
2024/01/14 09:49:53;;;;;;;43.03;12.97;;;-1.80;99.90;;;;;;5114935;28;20069;-75
2024/01/14 09:52:20;;;;;;;36.43;12.90;;;-1.90;99.90;;;;;;5096340;28;20081;-76
2024/01/14 09:54:46;;;;;;;42.80;12.53;;;-1.90;99.90;;;;;;5096794;28;20023;-75
2024/01/14 09:57:14;;;;;;;45.60;11.53;;;-1.80;99.90;;;;;;5096755;28;20020;-75
2024/01/14 09:59:43;;;;;;;46.07;12.10;;;-1.80;99.90;;;;;;5096256;28;20080;-75
2024/01/14 10:02:10;;;;;;;44.50;11.90;;;-1.80;99.90;;;;;;5096772;28;20055;-75
2024/01/14 10:04:38;;;;;;;40.87;12.67;;;-1.80;99.90;;;;;;5096178;28;20111;-74
2024/01/14 10:07:04;;;;;;;45.27;12.37;;;-1.80;99.90;;;;;;5114730;28;20024;-75
2024/01/14 10:09:30;;;;;;;41.47;12.40;;;-1.80;99.90;;;;;;5096162;28;20016;-75
2024/01/14 10:11:55;;;;;;;44.47;12.90;;;-1.80;99.90;;;;;;5115276;28;20032;-75
2024/01/14 10:14:28;;;;;;;45.87;12.30;;;-1.80;99.90;;;;;;5114547;28;20070;-75
2024/01/14 10:16:59;;;;;;;47.27;12.33;;;-1.80;99.90;;;;;;5096529;28;20475;-75
2024/01/14 10:19:25;;;;;;;44.58;12.85;;;-1.80;99.90;;;;;;5095914;28;20035;-75
2024/01/14 10:21:53;;;;;;;52.30;14.43;;;-1.70;99.90;;;;;;5096268;28;20032;-75
2024/01/14 10:24:20;;;;;;;45.33;14.57;;;-1.70;99.90;;;;;;5095917;28;20028;-82
2024/01/14 10:26:46;;;;;;;41.80;12.37;;;-1.80;99.90;;;;;;5096254;28;20031;-75
2024/01/14 10:29:14;;;;;;;45.83;12.50;;;-1.70;99.90;;;;;;5096132;28;20037;-74
2024/01/14 10:31:42;;;;;;;49.97;13.87;;;-1.70;99.90;;;;;;5113909;28;20027;-75
2024/01/14 10:34:08;;;;;;;49.57;13.57;;;-1.70;99.90;;;;;;5114385;28;20032;-74
2024/01/14 10:36:34;;;;;;;46.10;13.03;;;-1.60;99.90;;;;;;5095550;28;20030;-75
2024/01/14 10:39:01;;;;;;;43.93;13.30;;;-1.60;99.90;;;;;;5095930;28;20356;-75
2024/01/14 10:41:27;;;;;;;41.47;12.00;;;-1.60;99.90;;;;;;5112880;28;20041;-75
2024/01/14 10:43:52;;;;;;;45.63;12.57;;;-1.60;99.90;;;;;;5095859;28;20110;-75
2024/01/14 10:46:18;;;;;;;46.37;13.13;;;-1.60;99.90;;;;;;5095841;28;20510;-75
2024/01/14 10:48:52;;;;;;;42.87;13.37;;;-1.60;99.90;;;;;;5095383;28;20024;-75
2024/01/14 10:51:21;;;;;;;40.60;12.57;;;-1.60;99.90;;;;;;5113809;28;20019;-75
2024/01/14 10:54:10;;;;;;;41.47;13.83;;;-1.50;99.90;;;;;;5095652;28;20394;-74
2024/01/14 10:56:49;;;;;;;42.47;12.50;;;-1.50;99.90;;;;;;5094938;28;20023;-75
2024/01/14 10:59:16;;;;;;;44.40;12.60;;;-1.50;99.90;;;;;;5095722;28;20159;-74
2024/01/14 11:01:49;;;;;;;45.30;13.40;;;-1.60;99.90;;;;;;5113270;28;20464;-74
2024/01/14 11:04:18;;;;;;;42.33;12.30;;;-1.60;99.90;;;;;;5113827;28;20019;-75
2024/01/14 11:06:44;;;;;;;47.00;14.30;;;-1.60;99.90;;;;;;5094946;28;20028;-74
2024/01/14 11:09:10;;;;;;;44.07;12.93;;;-1.60;99.90;;;;;;5113421;28;20015;-74
2024/01/14 11:12:01;;;;;;;49.33;14.23;;;-1.70;99.90;;;;;;5113133;28;20055;-75
2024/01/14 11:14:37;;;;;;;42.57;12.33;;;-1.70;99.90;;;;;;5095063;28;20076;-75
2024/01/14 11:17:13;;;;;;;45.37;13.80;;;-1.70;99.90;;;;;;5095316;28;20023;-74
2024/01/14 11:19:42;;;;;;;44.33;14.63;;;-1.70;99.90;;;;;;5094981;28;20360;-74
2024/01/14 11:22:15;;;;;;;47.87;13.97;;;-1.70;99.90;;;;;;5113543;28;20027;-74
2024/01/14 11:24:41;;;;;;;50.43;14.03;;;-1.70;99.90;;;;;;5094826;28;20024;-75
2024/01/14 11:27:07;;;;;;;49.57;14.70;;;-1.60;99.90;;;;;;5095148;28;20027;-74
2024/01/14 11:29:36;;;;;;;43.27;13.47;;;-1.60;99.90;;;;;;5094809;28;20025;-75
2024/01/14 11:32:11;;;;;;;53.77;15.70;;;-1.60;99.90;;;;;;5095092;28;20024;-74
2024/01/14 11:34:46;;;;;;;48.13;15.10;;;-1.70;99.90;;;;;;5094716;28;20044;-74
2024/01/14 11:37:30;;;;;;;52.90;16.70;;;-1.60;99.90;;;;;;5113366;28;20070;-75
2024/01/14 11:40:26;;;;;;;52.47;15.30;;;-1.70;99.90;;;;;;5094757;28;20024;-75
2024/01/14 11:43:00;;;;;;;48.10;14.23;;;-1.70;99.90;;;;;;5084891;28;20412;-75
2024/01/14 11:45:26;;;;;;;44.57;14.67;;;-1.70;99.90;;;;;;5094618;28;20027;-75
2024/01/14 11:47:53;;;;;;;50.97;14.50;;;-1.60;99.90;;;;;;5095271;28;20360;-75
2024/01/14 11:50:19;;;;;;;54.13;15.93;;;-1.60;99.90;;;;;;5113143;28;20020;-74
2024/01/14 11:52:46;;;;;;;46.23;16.93;;;-1.70;99.90;;;;;;5094596;28;20024;-75
2024/01/14 11:55:14;;;;;;;49.80;15.33;;;-1.60;99.90;;;;;;5116790;28;20020;-75
2024/01/14 11:57:40;;;;;;;55.90;15.23;;;-1.60;99.90;;;;;;5116876;28;20030;-75
2024/01/14 12:00:07;;;;;;;56.43;15.83;;;-1.60;99.90;;;;;;5099259;28;20019;-75
2024/01/14 12:02:33;;;;;;;50.30;14.57;;;-1.60;99.90;;;;;;5098603;28;20412;-75
2024/01/14 12:05:20;;;;;;;44.83;13.63;;;-1.60;99.90;;;;;;5099076;28;20020;-75
2024/01/14 12:07:47;;;;;;;45.63;13.77;;;-1.70;99.90;;;;;;5116772;28;20035;-75
2024/01/14 12:10:14;;;;;;;53.00;14.50;;;-1.80;99.90;;;;;;5117162;28;20479;-75
2024/01/14 12:12:41;;;;;;;51.07;15.60;;;-1.80;99.90;;;;;;5098341;28;20456;-75
2024/01/14 12:15:07;;;;;;;52.00;14.60;;;-1.90;99.90;;;;;;5117012;28;20047;-75
2024/01/14 12:17:32;;;;;;;46.77;14.47;;;-1.80;99.90;;;;;;5098272;28;20076;-75
2024/01/14 12:19:58;;;;;;;49.83;15.73;;;-1.70;99.90;;;;;;5098637;28;20356;-75
2024/01/14 12:22:25;;;;;;;47.60;14.40;;;-1.70;99.90;;;;;;5098587;28;20055;-75
2024/01/14 12:24:51;;;;;;;46.30;13.33;;;-1.70;99.90;;;;;;5098176;28;20106;-75